sensor_id;sensor_type;location;lat;lon;timestamp;pressure;altitude;pressure_sealevel;temperature;humidity
12219;BME280;6172;42.646;23.344;2022-08-19T00:01:31;94316.84;;;20.98;100.00
12219;BME280;6172;42.646;23.344;2022-08-19T00:04:03;94308.66;;;20.63;100.00
12219;BME280;6172;42.646;23.344;2022-08-19T00:06:30;94309.13;;;20.62;100.00
12219;BME280;6172;42.646;23.344;2022-08-19T00:08:58;94310.69;;;20.68;100.00
12219;BME280;6172;42.646;23.344;2022-08-19T00:11:26;94303.41;;;20.71;100.00
12219;BME280;6172;42.646;23.344;2022-08-19T00:13:54;94300.72;;;20.76;100.00
12219;BME280;6172;42.646;23.344;2022-08-19T00:16:22;94302.63;;;20.65;100.00
12219;BME280;6172;42.646;23.344;2022-08-19T00:18:50;94323.53;;;20.66;100.00
12219;BME280;6172;42.646;23.344;2022-08-19T00:21:18;94308.56;;;20.58;100.00
12219;BME280;6172;42.646;23.344;2022-08-19T00:23:45;94333.88;;;20.71;100.00
12219;BME280;6172;42.646;23.344;2022-08-19T00:26:12;94328.94;;;20.55;100.00
12219;BME280;6172;42.646;23.344;2022-08-19T00:28:39;94309.63;;;20.60;100.00
12219;BME280;6172;42.646;23.344;2022-08-19T00:31:08;94324.06;;;20.70;100.00
12219;BME280;6172;42.646;23.344;2022-08-19T00:33:35;94312.50;;;20.71;100.00
12219;BME280;6172;42.646;23.344;2022-08-19T00:36:06;94337.16;;;20.89;100.00
12219;BME280;6172;42.646;23.344;2022-08-19T00:38:37;94337.97;;;20.75;100.00
12219;BME280;6172;42.646;23.344;2022-08-19T00:41:09;94329.69;;;20.55;100.00
12219;BME280;6172;42.646;23.344;2022-08-19T00:43:36;94330.72;;;20.58;100.00
12219;BME280;6172;42.646;23.344;2022-08-19T00:46:04;94319.19;;;20.39;100.00
12219;BME280;6172;42.646;23.344;2022-08-19T00:48:32;94326.28;;;20.20;100.00
12219;BME280;6172;42.646;23.344;2022-08-19T00:51:00;94331.56;;;20.24;100.00
12219;BME280;6172;42.646;23.344;2022-08-19T00:53:29;94326.69;;;20.13;100.00
12219;BME280;6172;42.646;23.344;2022-08-19T00:56:02;94330.13;;;20.08;100.00
12219;BME280;6172;42.646;23.344;2022-08-19T00:58:34;94321.38;;;19.95;100.00
12219;BME280;6172;42.646;23.344;2022-08-19T01:01:03;94328.38;;;20.11;100.00
12219;BME280;6172;42.646;23.344;2022-08-19T01:03:30;94314.31;;;19.94;100.00
12219;BME280;6172;42.646;23.344;2022-08-19T01:05:57;94316.19;;;19.83;100.00
12219;BME280;6172;42.646;23.344;2022-08-19T01:08:25;94335.13;;;19.90;100.00
12219;BME280;6172;42.646;23.344;2022-08-19T01:10:54;94333.72;;;19.80;100.00
12219;BME280;6172;42.646;23.344;2022-08-19T01:13:25;94304.03;;;19.60;100.00
12219;BME280;6172;42.646;23.344;2022-08-19T01:15:56;94310.31;;;19.61;100.00
12219;BME280;6172;42.646;23.344;2022-08-19T01:18:25;94323.38;;;19.60;100.00
12219;BME280;6172;42.646;23.344;2022-08-19T01:20:54;94328.53;;;19.67;100.00
12219;BME280;6172;42.646;23.344;2022-08-19T01:23:24;94323.19;;;19.64;100.00
12219;BME280;6172;42.646;23.344;2022-08-19T01:26:11;94326.81;;;19.70;100.00
12219;BME280;6172;42.646;23.344;2022-08-19T01:28:39;94327.75;;;19.67;100.00
12219;BME280;6172;42.646;23.344;2022-08-19T01:31:08;94325.88;;;19.58;100.00
12219;BME280;6172;42.646;23.344;2022-08-19T01:33:37;94324.38;;;19.57;100.00
12219;BME280;6172;42.646;23.344;2022-08-19T01:36:06;94325.56;;;19.56;100.00
12219;BME280;6172;42.646;23.344;2022-08-19T01:38:37;94332.91;;;19.59;100.00
12219;BME280;6172;42.646;23.344;2022-08-19T01:41:04;94333.88;;;19.56;100.00
12219;BME280;6172;42.646;23.344;2022-08-19T01:43:32;94316.56;;;19.41;100.00
12219;BME280;6172;42.646;23.344;2022-08-19T01:46:00;94331.28;;;19.67;100.00
12219;BME280;6172;42.646;23.344;2022-08-19T01:48:33;94317.47;;;19.67;100.00
12219;BME280;6172;42.646;23.344;2022-08-19T01:51:00;94328.09;;;19.54;100.00
12219;BME280;6172;42.646;23.344;2022-08-19T01:53:27;94329.50;;;19.64;100.00
12219;BME280;6172;42.646;23.344;2022-08-19T01:55:55;94332.09;;;19.73;100.00
12219;BME280;6172;42.646;23.344;2022-08-19T01:58:27;94337.34;;;19.51;100.00
12219;BME280;6172;42.646;23.344;2022-08-19T02:00:56;94332.75;;;19.48;100.00
12219;BME280;6172;42.646;23.344;2022-08-19T02:03:23;94317.09;;;19.60;100.00
12219;BME280;6172;42.646;23.344;2022-08-19T02:05:54;94314.06;;;19.43;100.00
12219;BME280;6172;42.646;23.344;2022-08-19T02:08:21;94332.19;;;19.44;100.00
12219;BME280;6172;42.646;23.344;2022-08-19T02:10:49;94335.44;;;19.42;100.00
12219;BME280;6172;42.646;23.344;2022-08-19T02:13:18;94326.38;;;19.42;100.00
12219;BME280;6172;42.646;23.344;2022-08-19T02:15:45;94340.38;;;19.38;100.00
12219;BME280;6172;42.646;23.344;2022-08-19T02:18:12;94307.59;;;19.17;100.00
12219;BME280;6172;42.646;23.344;2022-08-19T02:20:42;94315.06;;;19.11;100.00
12219;BME280;6172;42.646;23.344;2022-08-19T02:23:10;94334.13;;;19.23;100.00
12219;BME280;6172;42.646;23.344;2022-08-19T02:25:38;94339.81;;;19.34;100.00
12219;BME280;6172;42.646;23.344;2022-08-19T02:28:05;94340.47;;;19.15;100.00
12219;BME280;6172;42.646;23.344;2022-08-19T02:30:34;94340.66;;;18.97;100.00
12219;BME280;6172;42.646;23.344;2022-08-19T02:33:01;94333.53;;;18.90;100.00
12219;BME280;6172;42.646;23.344;2022-08-19T02:35:27;94316.84;;;18.70;100.00
12219;BME280;6172;42.646;23.344;2022-08-19T02:37:54;94344.75;;;18.87;100.00
12219;BME280;6172;42.646;23.344;2022-08-19T02:40:39;94328.00;;;18.76;100.00
12219;BME280;6172;42.646;23.344;2022-08-19T02:43:08;94343.97;;;18.72;100.00
12219;BME280;6172;42.646;23.344;2022-08-19T02:45:38;94321.94;;;18.48;100.00
12219;BME280;6172;42.646;23.344;2022-08-19T02:48:05;94353.84;;;18.64;100.00
12219;BME280;6172;42.646;23.344;2022-08-19T02:50:37;94354.59;;;18.50;100.00
12219;BME280;6172;42.646;23.344;2022-08-19T02:53:04;94343.44;;;18.44;100.00
12219;BME280;6172;42.646;23.344;2022-08-19T02:55:32;94350.00;;;18.47;100.00
12219;BME280;6172;42.646;23.344;2022-08-19T02:57:59;94355.63;;;18.52;100.00
12219;BME280;6172;42.646;23.344;2022-08-19T03:00:27;94357.66;;;18.52;100.00
12219;BME280;6172;42.646;23.344;2022-08-19T03:02:55;94342.50;;;18.47;100.00
12219;BME280;6172;42.646;23.344;2022-08-19T03:05:22;94350.63;;;18.65;100.00
12219;BME280;6172;42.646;23.344;2022-08-19T03:07:49;94349.09;;;18.64;100.00
12219;BME280;6172;42.646;23.344;2022-08-19T03:10:16;94345.56;;;18.64;100.00
12219;BME280;6172;42.646;23.344;2022-08-19T03:12:43;94360.06;;;18.73;100.00
12219;BME280;6172;42.646;23.344;2022-08-19T03:15:11;94350.28;;;18.87;100.00
12219;BME280;6172;42.646;23.344;2022-08-19T03:17:38;94344.97;;;18.98;100.00
12219;BME280;6172;42.646;23.344;2022-08-19T03:20:08;94337.63;;;19.09;100.00
12219;BME280;6172;42.646;23.344;2022-08-19T03:22:35;94340.75;;;19.17;100.00
12219;BME280;6172;42.646;23.344;2022-08-19T03:25:02;94345.94;;;19.24;100.00
12219;BME280;6172;42.646;23.344;2022-08-19T03:27:29;94340.78;;;19.31;100.00
12219;BME280;6172;42.646;23.344;2022-08-19T03:29:56;94313.72;;;19.21;100.00
12219;BME280;6172;42.646;23.344;2022-08-19T03:32:23;94337.75;;;19.29;100.00
12219;BME280;6172;42.646;23.344;2022-08-19T03:34:49;94328.28;;;19.21;100.00
12219;BME280;6172;42.646;23.344;2022-08-19T03:37:19;94342.94;;;19.13;100.00
12219;BME280;6172;42.646;23.344;2022-08-19T03:39:46;94346.47;;;19.13;100.00
12219;BME280;6172;42.646;23.344;2022-08-19T03:42:13;94345.34;;;18.91;100.00
12219;BME280;6172;42.646;23.344;2022-08-19T03:44:40;94350.25;;;18.72;100.00
12219;BME280;6172;42.646;23.344;2022-08-19T03:47:10;94326.63;;;18.57;100.00
12219;BME280;6172;42.646;23.344;2022-08-19T03:49:42;94364.94;;;18.78;100.00
12219;BME280;6172;42.646;23.344;2022-08-19T03:52:09;94367.78;;;18.69;100.00
12219;BME280;6172;42.646;23.344;2022-08-19T03:54:38;94369.69;;;18.63;100.00
12219;BME280;6172;42.646;23.344;2022-08-19T03:57:05;94374.31;;;18.34;100.00
12219;BME280;6172;42.646;23.344;2022-08-19T03:59:37;94353.94;;;18.31;100.00
12219;BME280;6172;42.646;23.344;2022-08-19T04:02:07;94367.56;;;18.35;100.00
12219;BME280;6172;42.646;23.344;2022-08-19T04:04:35;94385.63;;;18.45;100.00
12219;BME280;6172;42.646;23.344;2022-08-19T04:07:03;94371.78;;;18.21;100.00
12219;BME280;6172;42.646;23.344;2022-08-19T04:09:30;94394.22;;;18.38;100.00
12219;BME280;6172;42.646;23.344;2022-08-19T04:11:59;94383.66;;;18.36;100.00
12219;BME280;6172;42.646;23.344;2022-08-19T04:14:27;94388.72;;;18.38;100.00
12219;BME280;6172;42.646;23.344;2022-08-19T04:16:56;94383.59;;;18.45;100.00
12219;BME280;6172;42.646;23.344;2022-08-19T04:19:23;94384.25;;;18.40;100.00
12219;BME280;6172;42.646;23.344;2022-08-19T04:21:54;94388.47;;;18.50;100.00
12219;BME280;6172;42.646;23.344;2022-08-19T04:24:21;94398.78;;;18.41;100.00
12219;BME280;6172;42.646;23.344;2022-08-19T04:26:49;94382.22;;;18.41;100.00
12219;BME280;6172;42.646;23.344;2022-08-19T04:29:19;94402.38;;;18.56;100.00
12219;BME280;6172;42.646;23.344;2022-08-19T04:31:50;94394.63;;;18.69;100.00
12219;BME280;6172;42.646;23.344;2022-08-19T04:34:21;94388.69;;;18.61;100.00
12219;BME280;6172;42.646;23.344;2022-08-19T04:36:49;94386.63;;;18.71;100.00
12219;BME280;6172;42.646;23.344;2022-08-19T04:39:19;94399.22;;;18.86;100.00
12219;BME280;6172;42.646;23.344;2022-08-19T04:41:46;94377.03;;;18.81;100.00
12219;BME280;6172;42.646;23.344;2022-08-19T04:44:33;94390.13;;;19.09;100.00
12219;BME280;6172;42.646;23.344;2022-08-19T04:47:02;94385.53;;;19.21;100.00
12219;BME280;6172;42.646;23.344;2022-08-19T04:49:31;94372.22;;;19.19;100.00
12219;BME280;6172;42.646;23.344;2022-08-19T04:51:58;94383.00;;;19.46;100.00
12219;BME280;6172;42.646;23.344;2022-08-19T04:54:27;94392.88;;;19.53;100.00
12219;BME280;6172;42.646;23.344;2022-08-19T04:56:54;94377.94;;;19.45;100.00
12219;BME280;6172;42.646;23.344;2022-08-19T04:59:21;94372.88;;;19.43;100.00
12219;BME280;6172;42.646;23.344;2022-08-19T05:01:49;94382.69;;;19.59;100.00
12219;BME280;6172;42.646;23.344;2022-08-19T05:04:18;94394.50;;;19.74;100.00
12219;BME280;6172;42.646;23.344;2022-08-19T05:06:46;94401.63;;;19.81;100.00
12219;BME280;6172;42.646;23.344;2022-08-19T05:09:14;94391.03;;;19.79;100.00
12219;BME280;6172;42.646;23.344;2022-08-19T05:11:42;94386.25;;;19.94;100.00
12219;BME280;6172;42.646;23.344;2022-08-19T05:14:10;94393.75;;;20.08;100.00
12219;BME280;6172;42.646;23.344;2022-08-19T05:16:38;94390.16;;;20.22;100.00
12219;BME280;6172;42.646;23.344;2022-08-19T05:19:06;94382.66;;;20.43;100.00
12219;BME280;6172;42.646;23.344;2022-08-19T05:21:51;94387.28;;;20.71;100.00
12219;BME280;6172;42.646;23.344;2022-08-19T05:24:35;94385.72;;;20.85;100.00
12219;BME280;6172;42.646;23.344;2022-08-19T05:27:03;94387.28;;;21.17;100.00
12219;BME280;6172;42.646;23.344;2022-08-19T05:29:32;94382.94;;;21.61;100.00
12219;BME280;6172;42.646;23.344;2022-08-19T05:32:02;94383.88;;;22.74;98.44
12219;BME280;6172;42.646;23.344;2022-08-19T05:34:31;94369.94;;;24.04;86.42
12219;BME280;6172;42.646;23.344;2022-08-19T05:36:59;94380.50;;;25.58;74.55
12219;BME280;6172;42.646;23.344;2022-08-19T05:39:31;94371.72;;;26.80;62.49
12219;BME280;6172;42.646;23.344;2022-08-19T05:42:01;94369.22;;;28.46;53.87
12219;BME280;6172;42.646;23.344;2022-08-19T05:44:30;94375.88;;;29.60;48.67
12219;BME280;6172;42.646;23.344;2022-08-19T05:46:58;94376.59;;;29.01;49.39
12219;BME280;6172;42.646;23.344;2022-08-19T05:49:26;94380.06;;;28.10;52.21
12219;BME280;6172;42.646;23.344;2022-08-19T05:51:56;94375.94;;;28.95;49.62
12219;BME280;6172;42.646;23.344;2022-08-19T05:54:25;94385.13;;;30.22;45.16
12219;BME280;6172;42.646;23.344;2022-08-19T05:56:53;94382.56;;;29.90;44.74
12219;BME280;6172;42.646;23.344;2022-08-19T05:59:21;94387.22;;;30.50;44.06
12219;BME280;6172;42.646;23.344;2022-08-19T06:01:50;94376.72;;;30.09;44.07
12219;BME280;6172;42.646;23.344;2022-08-19T06:04:18;94362.47;;;30.48;42.72
12219;BME280;6172;42.646;23.344;2022-08-19T06:06:46;94369.81;;;28.83;46.00
12219;BME280;6172;42.646;23.344;2022-08-19T06:09:15;94385.34;;;29.10;46.19
12219;BME280;6172;42.646;23.344;2022-08-19T06:11:46;94385.09;;;30.91;42.43
12219;BME280;6172;42.646;23.344;2022-08-19T06:14:15;94391.09;;;30.67;41.24
12219;BME280;6172;42.646;23.344;2022-08-19T06:16:48;94385.56;;;31.53;39.71
12219;BME280;6172;42.646;23.344;2022-08-19T06:19:19;94376.38;;;30.54;40.92
12219;BME280;6172;42.646;23.344;2022-08-19T06:21:49;94391.81;;;31.16;39.42
12219;BME280;6172;42.646;23.344;2022-08-19T06:24:21;94382.50;;;31.87;37.79
12219;BME280;6172;42.646;23.344;2022-08-19T06:26:53;94386.56;;;31.20;38.30
12219;BME280;6172;42.646;23.344;2022-08-19T06:29:22;94386.50;;;31.13;38.87
12219;BME280;6172;42.646;23.344;2022-08-19T06:31:51;94370.63;;;30.95;39.25
12219;BME280;6172;42.646;23.344;2022-08-19T06:34:20;94391.91;;;31.39;39.04
12219;BME280;6172;42.646;23.344;2022-08-19T06:36:49;94389.28;;;31.41;38.06
12219;BME280;6172;42.646;23.344;2022-08-19T06:39:21;94394.72;;;29.72;41.57
12219;BME280;6172;42.646;23.344;2022-08-19T06:41:53;94392.16;;;31.63;37.58
12219;BME280;6172;42.646;23.344;2022-08-19T06:44:25;94389.56;;;29.63;40.28
12219;BME280;6172;42.646;23.344;2022-08-19T06:46:54;94386.00;;;29.63;40.79
12219;BME280;6172;42.646;23.344;2022-08-19T06:49:21;94390.25;;;30.10;39.88
12219;BME280;6172;42.646;23.344;2022-08-19T06:51:49;94390.56;;;30.69;39.67
12219;BME280;6172;42.646;23.344;2022-08-19T06:54:18;94386.97;;;31.75;37.45
12219;BME280;6172;42.646;23.344;2022-08-19T06:56:46;94375.59;;;32.03;36.49
12219;BME280;6172;42.646;23.344;2022-08-19T06:59:15;94390.22;;;31.36;37.91
12219;BME280;6172;42.646;23.344;2022-08-19T07:01:45;94393.06;;;31.51;38.36
12219;BME280;6172;42.646;23.344;2022-08-19T07:04:13;94394.63;;;32.55;35.88
12219;BME280;6172;42.646;23.344;2022-08-19T07:06:43;94396.31;;;32.58;36.36
12219;BME280;6172;42.646;23.344;2022-08-19T07:09:14;94397.38;;;31.52;37.87
12219;BME280;6172;42.646;23.344;2022-08-19T07:11:45;94403.31;;;31.69;37.70
12219;BME280;6172;42.646;23.344;2022-08-19T07:14:13;94402.25;;;31.08;39.31
12219;BME280;6172;42.646;23.344;2022-08-19T07:16:43;94376.56;;;31.55;38.35
12219;BME280;6172;42.646;23.344;2022-08-19T07:19:11;94400.06;;;32.98;35.56
12219;BME280;6172;42.646;23.344;2022-08-19T07:21:38;94382.38;;;32.60;36.25
12219;BME280;6172;42.646;23.344;2022-08-19T07:24:05;94381.91;;;33.31;35.60
12219;BME280;6172;42.646;23.344;2022-08-19T07:26:42;94386.16;;;32.85;35.90
12219;BME280;6172;42.646;23.344;2022-08-19T07:29:11;94397.44;;;32.85;36.05
12219;BME280;6172;42.646;23.344;2022-08-19T07:31:38;94394.75;;;33.17;35.82
12219;BME280;6172;42.646;23.344;2022-08-19T07:34:08;94397.00;;;33.11;36.09
12219;BME280;6172;42.646;23.344;2022-08-19T07:36:38;94395.50;;;33.25;35.85
12219;BME280;6172;42.646;23.344;2022-08-19T07:39:08;94396.31;;;32.88;35.95
12219;BME280;6172;42.646;23.344;2022-08-19T07:41:37;94389.41;;;33.36;34.27
12219;BME280;6172;42.646;23.344;2022-08-19T07:44:05;94380.28;;;34.00;33.70
12219;BME280;6172;42.646;23.344;2022-08-19T07:46:37;94378.38;;;34.59;32.32
12219;BME280;6172;42.646;23.344;2022-08-19T07:49:06;94369.44;;;34.13;33.27
12219;BME280;6172;42.646;23.344;2022-08-19T07:51:34;94396.84;;;33.71;33.73
12219;BME280;6172;42.646;23.344;2022-08-19T07:54:02;94389.16;;;32.87;35.10
12219;BME280;6172;42.646;23.344;2022-08-19T07:56:29;94398.59;;;33.52;34.10
12219;BME280;6172;42.646;23.344;2022-08-19T07:58:56;94391.59;;;32.91;34.92
12219;BME280;6172;42.646;23.344;2022-08-19T08:01:25;94380.59;;;33.32;33.71
12219;BME280;6172;42.646;23.344;2022-08-19T08:03:56;94392.47;;;33.23;34.13
12219;BME280;6172;42.646;23.344;2022-08-19T08:06:40;94389.00;;;33.47;33.97
12219;BME280;6172;42.646;23.344;2022-08-19T08:09:27;94380.09;;;32.89;34.29
12219;BME280;6172;42.646;23.344;2022-08-19T08:11:57;94379.66;;;33.30;34.07
12219;BME280;6172;42.646;23.344;2022-08-19T08:14:26;94392.84;;;31.99;36.24
12219;BME280;6172;42.646;23.344;2022-08-19T08:16:54;94376.13;;;31.43;37.31
12219;BME280;6172;42.646;23.344;2022-08-19T08:19:25;94382.56;;;33.00;34.90
12219;BME280;6172;42.646;23.344;2022-08-19T08:21:54;94385.00;;;33.65;33.92
12219;BME280;6172;42.646;23.344;2022-08-19T08:24:22;94374.78;;;33.23;34.58
12219;BME280;6172;42.646;23.344;2022-08-19T08:26:49;94358.97;;;33.12;34.39
12219;BME280;6172;42.646;23.344;2022-08-19T08:29:16;94352.44;;;31.97;35.80
12219;BME280;6172;42.646;23.344;2022-08-19T08:31:45;94357.00;;;33.37;34.40
12219;BME280;6172;42.646;23.344;2022-08-19T08:34:13;94371.63;;;33.58;33.19
12219;BME280;6172;42.646;23.344;2022-08-19T08:36:43;94371.22;;;33.69;33.63
12219;BME280;6172;42.646;23.344;2022-08-19T08:39:13;94370.63;;;34.03;32.12
12219;BME280;6172;42.646;23.344;2022-08-19T08:41:46;94358.91;;;34.06;31.33
12219;BME280;6172;42.646;23.344;2022-08-19T08:44:22;94359.94;;;34.75;30.53
12219;BME280;6172;42.646;23.344;2022-08-19T08:46:53;94345.84;;;34.18;30.56
12219;BME280;6172;42.646;23.344;2022-08-19T08:49:31;94343.84;;;34.61;29.25
12219;BME280;6172;42.646;23.344;2022-08-19T08:52:05;94347.03;;;34.08;29.03
12219;BME280;6172;42.646;23.344;2022-08-19T08:54:35;94350.44;;;33.35;29.45
12219;BME280;6172;42.646;23.344;2022-08-19T08:57:19;94348.56;;;33.77;29.09
12219;BME280;6172;42.646;23.344;2022-08-19T08:59:49;94346.13;;;34.30;28.69
12219;BME280;6172;42.646;23.344;2022-08-19T09:02:17;94353.72;;;33.95;29.26
12219;BME280;6172;42.646;23.344;2022-08-19T09:04:44;94326.81;;;34.19;29.22
12219;BME280;6172;42.646;23.344;2022-08-19T09:07:25;94330.34;;;33.95;29.13
12219;BME280;6172;42.646;23.344;2022-08-19T09:10:02;94351.34;;;33.45;29.48
12219;BME280;6172;42.646;23.344;2022-08-19T09:12:35;94342.41;;;34.27;29.26
12219;BME280;6172;42.646;23.344;2022-08-19T09:15:08;94343.06;;;34.60;28.48
12219;BME280;6172;42.646;23.344;2022-08-19T09:17:35;94323.84;;;34.59;27.92
12219;BME280;6172;42.646;23.344;2022-08-19T09:20:06;94337.41;;;34.35;27.86
12219;BME280;6172;42.646;23.344;2022-08-19T09:22:42;94346.25;;;33.43;27.50
12219;BME280;6172;42.646;23.344;2022-08-19T09:25:13;94337.56;;;32.94;28.93
12219;BME280;6172;42.646;23.344;2022-08-19T09:27:43;94336.13;;;32.78;27.25
12219;BME280;6172;42.646;23.344;2022-08-19T09:30:14;94341.09;;;33.64;26.16
12219;BME280;6172;42.646;23.344;2022-08-19T09:32:41;94331.88;;;33.56;26.28
12219;BME280;6172;42.646;23.344;2022-08-19T09:35:09;94318.56;;;32.95;27.76
12219;BME280;6172;42.646;23.344;2022-08-19T09:37:36;94305.53;;;33.07;27.80
12219;BME280;6172;42.646;23.344;2022-08-19T09:40:07;94293.44;;;33.53;27.34
12219;BME280;6172;42.646;23.344;2022-08-19T09:42:34;94318.22;;;34.02;27.53
12219;BME280;6172;42.646;23.344;2022-08-19T09:45:01;94296.13;;;34.08;27.14
12219;BME280;6172;42.646;23.344;2022-08-19T09:47:29;94304.72;;;34.42;25.99
12219;BME280;6172;42.646;23.344;2022-08-19T09:49:57;94312.88;;;34.55;26.92
12219;BME280;6172;42.646;23.344;2022-08-19T09:52:24;94316.38;;;34.71;25.79
12219;BME280;6172;42.646;23.344;2022-08-19T09:54:52;94307.91;;;34.46;26.53
12219;BME280;6172;42.646;23.344;2022-08-19T09:57:20;94317.91;;;33.90;25.56
12219;BME280;6172;42.646;23.344;2022-08-19T09:59:47;94310.22;;;34.15;25.84
12219;BME280;6172;42.646;23.344;2022-08-19T10:02:14;94301.16;;;34.17;24.84
12219;BME280;6172;42.646;23.344;2022-08-19T10:04:41;94304.09;;;33.77;25.61
12219;BME280;6172;42.646;23.344;2022-08-19T10:07:25;94297.69;;;34.01;26.31
12219;BME280;6172;42.646;23.344;2022-08-19T10:09:52;94292.09;;;34.18;26.13
12219;BME280;6172;42.646;23.344;2022-08-19T10:12:21;94282.09;;;33.68;26.44
12219;BME280;6172;42.646;23.344;2022-08-19T10:14:48;94289.28;;;34.60;24.89
12219;BME280;6172;42.646;23.344;2022-08-19T10:17:16;94282.19;;;34.51;24.66
12219;BME280;6172;42.646;23.344;2022-08-19T10:19:44;94270.09;;;34.34;25.18
12219;BME280;6172;42.646;23.344;2022-08-19T10:22:12;94290.53;;;33.76;25.99
12219;BME280;6172;42.646;23.344;2022-08-19T10:24:40;94290.34;;;33.98;25.94
12219;BME280;6172;42.646;23.344;2022-08-19T10:27:07;94285.41;;;34.48;25.16
12219;BME280;6172;42.646;23.344;2022-08-19T10:29:36;94265.75;;;34.08;25.66
12219;BME280;6172;42.646;23.344;2022-08-19T10:32:04;94272.69;;;33.26;25.85
12219;BME280;6172;42.646;23.344;2022-08-19T10:34:34;94265.41;;;33.16;26.63
12219;BME280;6172;42.646;23.344;2022-08-19T10:37:02;94279.59;;;32.93;26.86
12219;BME280;6172;42.646;23.344;2022-08-19T10:39:31;94280.47;;;33.18;26.75
12219;BME280;6172;42.646;23.344;2022-08-19T10:41:58;94274.78;;;32.64;26.92
12219;BME280;6172;42.646;23.344;2022-08-19T10:44:25;94267.38;;;32.91;26.72
12219;BME280;6172;42.646;23.344;2022-08-19T10:46:56;94260.31;;;33.14;26.79
12219;BME280;6172;42.646;23.344;2022-08-19T10:49:24;94264.16;;;32.94;26.84
12219;BME280;6172;42.646;23.344;2022-08-19T10:51:51;94276.28;;;33.59;26.08
12219;BME280;6172;42.646;23.344;2022-08-19T10:54:49;94261.31;;;33.73;25.83
12219;BME280;6172;42.646;23.344;2022-08-19T10:57:36;94264.38;;;33.92;25.87
12219;BME280;6172;42.646;23.344;2022-08-19T11:00:04;94246.44;;;33.97;25.77
12219;BME280;6172;42.646;23.344;2022-08-19T11:02:33;94255.81;;;33.83;25.39
12219;BME280;6172;42.646;23.344;2022-08-19T11:05:00;94250.81;;;33.91;25.51
12219;BME280;6172;42.646;23.344;2022-08-19T11:07:27;94249.94;;;34.30;25.03
12219;BME280;6172;42.646;23.344;2022-08-19T11:09:54;94252.31;;;34.58;24.73
12219;BME280;6172;42.646;23.344;2022-08-19T11:12:21;94251.97;;;34.88;24.17
12219;BME280;6172;42.646;23.344;2022-08-19T11:14:48;94252.03;;;34.05;24.54
12219;BME280;6172;42.646;23.344;2022-08-19T11:17:16;94249.84;;;34.20;24.44
12219;BME280;6172;42.646;23.344;2022-08-19T11:19:44;94252.41;;;34.68;23.85
12219;BME280;6172;42.646;23.344;2022-08-19T11:22:13;94246.66;;;35.09;24.14
12219;BME280;6172;42.646;23.344;2022-08-19T11:24:40;94250.91;;;34.84;24.62
12219;BME280;6172;42.646;23.344;2022-08-19T11:27:09;94255.16;;;34.58;24.95
12219;BME280;6172;42.646;23.344;2022-08-19T11:29:38;94236.53;;;33.89;24.99
12219;BME280;6172;42.646;23.344;2022-08-19T11:32:07;94243.50;;;34.12;25.42
12219;BME280;6172;42.646;23.344;2022-08-19T11:34:35;94243.06;;;34.40;25.28
12219;BME280;6172;42.646;23.344;2022-08-19T11:37:03;94229.06;;;34.25;25.70
12219;BME280;6172;42.646;23.344;2022-08-19T11:39:32;94223.59;;;34.79;24.95
12219;BME280;6172;42.646;23.344;2022-08-19T11:42:03;94228.53;;;33.95;25.96
12219;BME280;6172;42.646;23.344;2022-08-19T11:44:50;94226.09;;;33.74;26.42
12219;BME280;6172;42.646;23.344;2022-08-19T11:47:17;94222.56;;;33.91;25.91
12219;BME280;6172;42.646;23.344;2022-08-19T11:49:45;94221.34;;;33.77;26.39
12219;BME280;6172;42.646;23.344;2022-08-19T11:52:13;94216.56;;;33.87;26.42
12219;BME280;6172;42.646;23.344;2022-08-19T11:54:40;94208.47;;;33.83;26.22
12219;BME280;6172;42.646;23.344;2022-08-19T11:57:07;94205.81;;;34.10;26.15
12219;BME280;6172;42.646;23.344;2022-08-19T11:59:34;94206.41;;;34.25;25.11
12219;BME280;6172;42.646;23.344;2022-08-19T12:02:01;94212.41;;;34.29;25.47
12219;BME280;6172;42.646;23.344;2022-08-19T12:04:28;94212.47;;;34.64;25.56
12219;BME280;6172;42.646;23.344;2022-08-19T12:06:55;94203.28;;;34.73;25.48
12219;BME280;6172;42.646;23.344;2022-08-19T12:09:24;94208.59;;;34.34;25.98
12219;BME280;6172;42.646;23.344;2022-08-19T12:11:51;94198.59;;;34.16;25.83
12219;BME280;6172;42.646;23.344;2022-08-19T12:14:18;94188.31;;;34.63;25.06
12219;BME280;6172;42.646;23.344;2022-08-19T12:16:45;94212.94;;;34.87;25.16
12219;BME280;6172;42.646;23.344;2022-08-19T12:19:13;94208.09;;;34.45;24.86
12219;BME280;6172;42.646;23.344;2022-08-19T12:21:41;94206.84;;;34.39;25.27
12219;BME280;6172;42.646;23.344;2022-08-19T12:24:07;94192.28;;;34.25;25.26
12219;BME280;6172;42.646;23.344;2022-08-19T12:26:36;94196.59;;;33.85;25.98
12219;BME280;6172;42.646;23.344;2022-08-19T12:29:03;94183.50;;;33.72;26.33
12219;BME280;6172;42.646;23.344;2022-08-19T12:31:30;94187.28;;;33.92;25.45
12219;BME280;6172;42.646;23.344;2022-08-19T12:33:58;94181.16;;;34.03;25.96
12219;BME280;6172;42.646;23.344;2022-08-19T12:36:27;94177.03;;;33.79;25.79
12219;BME280;6172;42.646;23.344;2022-08-19T12:38:54;94177.91;;;34.06;25.31
12219;BME280;6172;42.646;23.344;2022-08-19T12:41:24;94178.22;;;33.93;25.84
12219;BME280;6172;42.646;23.344;2022-08-19T12:43:52;94169.22;;;34.12;25.71
12219;BME280;6172;42.646;23.344;2022-08-19T12:46:19;94154.09;;;33.75;26.18
12219;BME280;6172;42.646;23.344;2022-08-19T12:48:46;94165.75;;;33.96;25.80
12219;BME280;6172;42.646;23.344;2022-08-19T12:51:16;94169.19;;;33.70;26.26
12219;BME280;6172;42.646;23.344;2022-08-19T12:53:45;94173.22;;;33.84;25.75
12219;BME280;6172;42.646;23.344;2022-08-19T12:56:12;94170.75;;;34.05;25.94
12219;BME280;6172;42.646;23.344;2022-08-19T12:58:40;94172.25;;;34.06;25.75
12219;BME280;6172;42.646;23.344;2022-08-19T13:01:11;94154.56;;;34.06;25.48
12219;BME280;6172;42.646;23.344;2022-08-19T13:03:40;94162.41;;;34.32;25.42
12219;BME280;6172;42.646;23.344;2022-08-19T13:06:08;94150.00;;;34.10;25.87